sensor_id;sensor_type;location;lat;lon;timestamp;pressure;altitude;pressure_sealevel;temperature;humidity
6413;BME280;3239;48.714;9.472;2023-03-31T00:00:35;97841.78;;;8.79;100.00
6413;BME280;3239;48.714;9.472;2023-03-31T00:03:01;97848.34;;;8.70;100.00
6413;BME280;3239;48.714;9.472;2023-03-31T00:05:27;97841.72;;;8.66;100.00
6413;BME280;3239;48.714;9.472;2023-03-31T00:07:57;97843.75;;;8.78;100.00
6413;BME280;3239;48.714;9.472;2023-03-31T00:10:31;97843.34;;;8.74;100.00
6413;BME280;3239;48.714;9.472;2023-03-31T00:12:59;97845.69;;;8.65;100.00
6413;BME280;3239;48.714;9.472;2023-03-31T00:15:25;97842.25;;;8.64;100.00
6413;BME280;3239;48.714;9.472;2023-03-31T00:17:51;97832.03;;;8.65;100.00
6413;BME280;3239;48.714;9.472;2023-03-31T00:20:17;97839.41;;;8.70;100.00
6413;BME280;3239;48.714;9.472;2023-03-31T00:22:43;97836.31;;;8.79;100.00
6413;BME280;3239;48.714;9.472;2023-03-31T00:25:13;97838.97;;;8.84;100.00
6413;BME280;3239;48.714;9.472;2023-03-31T00:27:44;97819.22;;;8.91;100.00
6413;BME280;3239;48.714;9.472;2023-03-31T00:30:14;97806.41;;;8.86;100.00
6413;BME280;3239;48.714;9.472;2023-03-31T00:32:40;97803.34;;;8.90;100.00
6413;BME280;3239;48.714;9.472;2023-03-31T00:35:06;97799.63;;;8.74;100.00
6413;BME280;3239;48.714;9.472;2023-03-31T00:37:33;97793.16;;;8.59;100.00
6413;BME280;3239;48.714;9.472;2023-03-31T00:39:59;97798.31;;;8.62;100.00
6413;BME280;3239;48.714;9.472;2023-03-31T00:42:26;97788.59;;;8.67;100.00
6413;BME280;3239;48.714;9.472;2023-03-31T00:48:13;97808.03;;;8.26;100.00
6413;BME280;3239;48.714;9.472;2023-03-31T00:50:55;97812.09;;;8.38;100.00
6413;BME280;3239;48.714;9.472;2023-03-31T00:53:27;97813.63;;;8.52;100.00
6413;BME280;3239;48.714;9.472;2023-03-31T00:56:00;97813.47;;;8.45;100.00
6413;BME280;3239;48.714;9.472;2023-03-31T00:58:27;97821.06;;;8.52;100.00
6413;BME280;3239;48.714;9.472;2023-03-31T01:00:56;97809.03;;;8.60;100.00
6413;BME280;3239;48.714;9.472;2023-03-31T01:03:22;97812.78;;;8.57;100.00
6413;BME280;3239;48.714;9.472;2023-03-31T01:05:56;97802.75;;;8.65;100.00
6413;BME280;3239;48.714;9.472;2023-03-31T01:08:26;97803.28;;;8.45;100.00
6413;BME280;3239;48.714;9.472;2023-03-31T01:10:57;97806.25;;;8.47;100.00
6413;BME280;3239;48.714;9.472;2023-03-31T01:13:24;97806.16;;;8.53;100.00
6413;BME280;3239;48.714;9.472;2023-03-31T01:15:51;97798.56;;;8.46;100.00
6413;BME280;3239;48.714;9.472;2023-03-31T01:18:17;97796.19;;;8.55;100.00
6413;BME280;3239;48.714;9.472;2023-03-31T01:24:22;97780.97;;;8.60;100.00
6413;BME280;3239;48.714;9.472;2023-03-31T01:30:28;97763.63;;;8.26;100.00
6413;BME280;3239;48.714;9.472;2023-03-31T01:35:49;97776.66;;;8.33;100.00
6413;BME280;3239;48.714;9.472;2023-03-31T01:38:51;97773.06;;;8.43;100.00
6413;BME280;3239;48.714;9.472;2023-03-31T01:45:21;97772.31;;;8.43;100.00
6413;BME280;3239;48.714;9.472;2023-03-31T01:48:06;97766.47;;;8.52;100.00
6413;BME280;3239;48.714;9.472;2023-03-31T01:56:38;97777.56;;;8.41;100.00
6413;BME280;3239;48.714;9.472;2023-03-31T01:59:33;97776.28;;;8.42;100.00
6413;BME280;3239;48.714;9.472;2023-03-31T02:02:31;97776.22;;;8.47;100.00
6413;BME280;3239;48.714;9.472;2023-03-31T02:05:16;97792.16;;;8.43;100.00
6413;BME280;3239;48.714;9.472;2023-03-31T02:07:55;97799.09;;;8.26;100.00
6413;BME280;3239;48.714;9.472;2023-03-31T02:10:24;97804.63;;;8.39;100.00
6413;BME280;3239;48.714;9.472;2023-03-31T02:12:55;97805.31;;;8.26;100.00
6413;BME280;3239;48.714;9.472;2023-03-31T02:15:27;97805.53;;;8.28;100.00
6413;BME280;3239;48.714;9.472;2023-03-31T02:17:56;97812.59;;;8.37;100.00
6413;BME280;3239;48.714;9.472;2023-03-31T02:20:26;97814.72;;;8.44;100.00
6413;BME280;3239;48.714;9.472;2023-03-31T02:22:55;97806.44;;;8.68;100.00
6413;BME280;3239;48.714;9.472;2023-03-31T02:25:27;97803.09;;;8.75;100.00
6413;BME280;3239;48.714;9.472;2023-03-31T02:28:01;97797.75;;;8.82;100.00
6413;BME280;3239;48.714;9.472;2023-03-31T02:34:03;97778.19;;;9.10;100.00
6413;BME280;3239;48.714;9.472;2023-03-31T02:36:29;97760.44;;;9.16;100.00
6413;BME280;3239;48.714;9.472;2023-03-31T02:39:01;97750.66;;;9.21;100.00
6413;BME280;3239;48.714;9.472;2023-03-31T02:41:28;97735.31;;;9.31;100.00
6413;BME280;3239;48.714;9.472;2023-03-31T02:43:53;97714.19;;;9.44;100.00
6413;BME280;3239;48.714;9.472;2023-03-31T02:46:20;97699.66;;;9.49;100.00
6413;BME280;3239;48.714;9.472;2023-03-31T02:48:49;97676.63;;;9.58;100.00
6413;BME280;3239;48.714;9.472;2023-03-31T03:00:36;97572.97;;;9.67;100.00
6413;BME280;3239;48.714;9.472;2023-03-31T03:03:26;97561.16;;;9.72;100.00
6413;BME280;3239;48.714;9.472;2023-03-31T03:09:10;97531.03;;;9.85;100.00
6413;BME280;3239;48.714;9.472;2023-03-31T03:12:08;97517.88;;;9.84;100.00
6413;BME280;3239;48.714;9.472;2023-03-31T03:17:43;97492.53;;;9.83;100.00
6413;BME280;3239;48.714;9.472;2023-03-31T03:20:11;97492.31;;;9.81;100.00
6413;BME280;3239;48.714;9.472;2023-03-31T03:22:39;97481.19;;;9.79;100.00
6413;BME280;3239;48.714;9.472;2023-03-31T03:25:08;97474.25;;;9.78;100.00
6413;BME280;3239;48.714;9.472;2023-03-31T03:27:35;97483.53;;;9.75;100.00
6413;BME280;3239;48.714;9.472;2023-03-31T03:30:03;97482.06;;;9.54;100.00
6413;BME280;3239;48.714;9.472;2023-03-31T03:32:30;97492.19;;;9.46;100.00
6413;BME280;3239;48.714;9.472;2023-03-31T03:34:56;97492.19;;;9.46;100.00
6413;BME280;3239;48.714;9.472;2023-03-31T03:37:21;97501.09;;;9.26;100.00
6413;BME280;3239;48.714;9.472;2023-03-31T03:39:47;97515.19;;;9.17;100.00
6413;BME280;3239;48.714;9.472;2023-03-31T03:42:13;97523.94;;;9.15;100.00
6413;BME280;3239;48.714;9.472;2023-03-31T03:44:39;97525.72;;;9.13;100.00
6413;BME280;3239;48.714;9.472;2023-03-31T03:47:04;97519.94;;;9.16;100.00
6413;BME280;3239;48.714;9.472;2023-03-31T03:49:30;97512.13;;;9.20;100.00
6413;BME280;3239;48.714;9.472;2023-03-31T03:51:56;97518.50;;;9.02;100.00
6413;BME280;3239;48.714;9.472;2023-03-31T03:54:22;97532.09;;;8.69;100.00
6413;BME280;3239;48.714;9.472;2023-03-31T03:56:48;97532.81;;;8.82;100.00
6413;BME280;3239;48.714;9.472;2023-03-31T03:59:14;97532.91;;;8.90;100.00
6413;BME280;3239;48.714;9.472;2023-03-31T04:01:40;97520.63;;;8.96;100.00
6413;BME280;3239;48.714;9.472;2023-03-31T04:04:06;97530.47;;;8.99;100.00
6413;BME280;3239;48.714;9.472;2023-03-31T04:06:31;97531.44;;;8.89;100.00
6413;BME280;3239;48.714;9.472;2023-03-31T04:08:57;97523.69;;;8.93;100.00
6413;BME280;3239;48.714;9.472;2023-03-31T04:11:23;97513.31;;;9.12;100.00
6413;BME280;3239;48.714;9.472;2023-03-31T04:13:49;97497.75;;;9.20;100.00
6413;BME280;3239;48.714;9.472;2023-03-31T04:16:14;97487.59;;;9.07;100.00
6413;BME280;3239;48.714;9.472;2023-03-31T04:18:41;97487.88;;;9.17;100.00
6413;BME280;3239;48.714;9.472;2023-03-31T04:21:09;97466.50;;;8.95;100.00
6413;BME280;3239;48.714;9.472;2023-03-31T04:23:38;97472.16;;;8.97;100.00
6413;BME280;3239;48.714;9.472;2023-03-31T04:26:16;97449.28;;;9.20;100.00
6413;BME280;3239;48.714;9.472;2023-03-31T04:28:43;97419.63;;;9.24;100.00
6413;BME280;3239;48.714;9.472;2023-03-31T04:31:13;97405.84;;;9.30;100.00
6413;BME280;3239;48.714;9.472;2023-03-31T04:33:51;97388.22;;;9.18;100.00
6413;BME280;3239;48.714;9.472;2023-03-31T04:36:17;97384.63;;;9.23;100.00
6413;BME280;3239;48.714;9.472;2023-03-31T04:38:44;97376.13;;;9.26;100.00
6413;BME280;3239;48.714;9.472;2023-03-31T04:41:17;97379.63;;;8.93;100.00
6413;BME280;3239;48.714;9.472;2023-03-31T04:43:43;97386.28;;;8.85;100.00
6413;BME280;3239;48.714;9.472;2023-03-31T04:46:09;97391.19;;;8.53;100.00
6413;BME280;3239;48.714;9.472;2023-03-31T04:48:35;97402.94;;;8.61;100.00
6413;BME280;3239;48.714;9.472;2023-03-31T04:51:02;97419.13;;;8.59;100.00
6413;BME280;3239;48.714;9.472;2023-03-31T04:53:28;97426.81;;;8.47;100.00
6413;BME280;3239;48.714;9.472;2023-03-31T04:55:53;97422.38;;;8.57;100.00
6413;BME280;3239;48.714;9.472;2023-03-31T04:58:19;97423.00;;;8.63;100.00
6413;BME280;3239;48.714;9.472;2023-03-31T05:00:45;97421.31;;;8.60;100.00
6413;BME280;3239;48.714;9.472;2023-03-31T05:03:11;97435.38;;;8.64;100.00
6413;BME280;3239;48.714;9.472;2023-03-31T05:05:37;97424.91;;;8.55;100.00
6413;BME280;3239;48.714;9.472;2023-03-31T05:08:03;97432.28;;;8.34;100.00
6413;BME280;3239;48.714;9.472;2023-03-31T05:10:30;97452.44;;;8.44;100.00
6413;BME280;3239;48.714;9.472;2023-03-31T05:12:56;97437.72;;;8.47;100.00
6413;BME280;3239;48.714;9.472;2023-03-31T05:15:22;97442.75;;;8.56;100.00
6413;BME280;3239;48.714;9.472;2023-03-31T05:17:51;97457.00;;;8.62;100.00
6413;BME280;3239;48.714;9.472;2023-03-31T05:20:18;97442.75;;;8.56;100.00
6413;BME280;3239;48.714;9.472;2023-03-31T05:22:45;97460.91;;;8.54;100.00
6413;BME280;3239;48.714;9.472;2023-03-31T05:25:13;97469.72;;;8.60;100.00
6413;BME280;3239;48.714;9.472;2023-03-31T05:27:44;97482.63;;;8.72;100.00
6413;BME280;3239;48.714;9.472;2023-03-31T05:30:12;97474.94;;;8.84;100.00
6413;BME280;3239;48.714;9.472;2023-03-31T05:32:38;97485.13;;;8.83;100.00
6413;BME280;3239;48.714;9.472;2023-03-31T05:35:05;97493.63;;;8.80;100.00
6413;BME280;3239;48.714;9.472;2023-03-31T05:37:31;97512.66;;;8.85;100.00
6413;BME280;3239;48.714;9.472;2023-03-31T05:39:56;97519.06;;;8.88;100.00
6413;BME280;3239;48.714;9.472;2023-03-31T05:42:22;97520.28;;;9.00;100.00
6413;BME280;3239;48.714;9.472;2023-03-31T05:44:48;97523.53;;;9.11;100.00
6413;BME280;3239;48.714;9.472;2023-03-31T05:47:15;97520.97;;;9.26;100.00
6413;BME280;3239;48.714;9.472;2023-03-31T05:49:41;97509.91;;;9.32;100.00
6413;BME280;3239;48.714;9.472;2023-03-31T05:52:10;97495.66;;;9.46;100.00
6413;BME280;3239;48.714;9.472;2023-03-31T05:54:36;97477.66;;;9.51;100.00
6413;BME280;3239;48.714;9.472;2023-03-31T05:57:02;97468.19;;;9.52;100.00
6413;BME280;3239;48.714;9.472;2023-03-31T05:59:28;97472.72;;;9.49;100.00
6413;BME280;3239;48.714;9.472;2023-03-31T06:01:54;97469.47;;;9.51;100.00
6413;BME280;3239;48.714;9.472;2023-03-31T06:04:19;97459.16;;;9.44;100.00
6413;BME280;3239;48.714;9.472;2023-03-31T06:06:45;97445.41;;;9.16;100.00
6413;BME280;3239;48.714;9.472;2023-03-31T06:09:15;97451.56;;;9.09;100.00
6413;BME280;3239;48.714;9.472;2023-03-31T06:11:41;97444.84;;;8.97;100.00
6413;BME280;3239;48.714;9.472;2023-03-31T06:14:07;97455.22;;;8.78;100.00
6413;BME280;3239;48.714;9.472;2023-03-31T06:16:32;97447.66;;;8.71;100.00
6413;BME280;3239;48.714;9.472;2023-03-31T06:18:58;97451.63;;;8.83;100.00
6413;BME280;3239;48.714;9.472;2023-03-31T06:21:24;97456.63;;;8.92;100.00
6413;BME280;3239;48.714;9.472;2023-03-31T06:23:50;97466.59;;;9.02;100.00
6413;BME280;3239;48.714;9.472;2023-03-31T06:26:19;97475.81;;;9.12;100.00
6413;BME280;3239;48.714;9.472;2023-03-31T06:28:47;97464.97;;;9.20;100.00
6413;BME280;3239;48.714;9.472;2023-03-31T06:31:17;97462.94;;;9.20;100.00
6413;BME280;3239;48.714;9.472;2023-03-31T06:33:44;97461.03;;;9.28;100.00
6413;BME280;3239;48.714;9.472;2023-03-31T06:36:13;97470.97;;;9.39;100.00
6413;BME280;3239;48.714;9.472;2023-03-31T06:38:39;97459.91;;;9.24;100.00
6413;BME280;3239;48.714;9.472;2023-03-31T06:41:07;97460.22;;;9.20;100.00
6413;BME280;3239;48.714;9.472;2023-03-31T06:43:33;97480.16;;;9.08;100.00
6413;BME280;3239;48.714;9.472;2023-03-31T06:45:59;97480.06;;;9.00;100.00
6413;BME280;3239;48.714;9.472;2023-03-31T06:48:26;97474.25;;;9.04;100.00
6413;BME280;3239;48.714;9.472;2023-03-31T06:50:53;97471.44;;;8.96;100.00
6413;BME280;3239;48.714;9.472;2023-03-31T06:53:20;97482.03;;;9.00;100.00
6413;BME280;3239;48.714;9.472;2023-03-31T06:55:47;97489.91;;;9.03;100.00
6413;BME280;3239;48.714;9.472;2023-03-31T06:58:13;97505.41;;;8.88;100.00
6413;BME280;3239;48.714;9.472;2023-03-31T07:00:39;97530.22;;;8.77;100.00
6413;BME280;3239;48.714;9.472;2023-03-31T07:03:05;97549.63;;;8.73;100.00
6413;BME280;3239;48.714;9.472;2023-03-31T07:05:33;97570.97;;;8.88;100.00
6413;BME280;3239;48.714;9.472;2023-03-31T07:07:59;97598.56;;;8.97;100.00
6413;BME280;3239;48.714;9.472;2023-03-31T07:10:28;97624.09;;;9.13;100.00
6413;BME280;3239;48.714;9.472;2023-03-31T07:12:54;97638.28;;;9.24;100.00
6413;BME280;3239;48.714;9.472;2023-03-31T07:15:20;97651.53;;;9.33;100.00
6413;BME280;3239;48.714;9.472;2023-03-31T07:17:46;97672.88;;;9.35;100.00
6413;BME280;3239;48.714;9.472;2023-03-31T07:20:17;97687.59;;;9.32;100.00
6413;BME280;3239;48.714;9.472;2023-03-31T07:22:44;97687.81;;;9.08;100.00
6413;BME280;3239;48.714;9.472;2023-03-31T07:25:13;97643.88;;;9.19;100.00
6413;BME280;3239;48.714;9.472;2023-03-31T07:27:40;97644.59;;;9.32;100.00
6413;BME280;3239;48.714;9.472;2023-03-31T07:30:15;97663.69;;;9.45;100.00
6413;BME280;3239;48.714;9.472;2023-03-31T07:32:42;97647.94;;;9.38;100.00
6413;BME280;3239;48.714;9.472;2023-03-31T07:35:10;97580.72;;;9.56;100.00
6413;BME280;3239;48.714;9.472;2023-03-31T07:37:41;97571.69;;;9.68;100.00
6413;BME280;3239;48.714;9.472;2023-03-31T07:40:11;97585.53;;;9.83;100.00
6413;BME280;3239;48.714;9.472;2023-03-31T07:42:37;97606.41;;;10.07;100.00
6413;BME280;3239;48.714;9.472;2023-03-31T07:45:03;97592.78;;;10.14;100.00
6413;BME280;3239;48.714;9.472;2023-03-31T07:47:32;97590.56;;;10.13;100.00
6413;BME280;3239;48.714;9.472;2023-03-31T07:49:58;97559.88;;;10.27;100.00
6413;BME280;3239;48.714;9.472;2023-03-31T07:52:24;97537.28;;;10.34;100.00
6413;BME280;3239;48.714;9.472;2023-03-31T07:54:50;97493.19;;;10.45;100.00
6413;BME280;3239;48.714;9.472;2023-03-31T07:57:16;97458.50;;;10.48;100.00
6413;BME280;3239;48.714;9.472;2023-03-31T07:59:45;97427.16;;;10.64;100.00
6413;BME280;3239;48.714;9.472;2023-03-31T08:02:14;97393.75;;;10.58;100.00
6413;BME280;3239;48.714;9.472;2023-03-31T08:04:40;97346.41;;;10.50;100.00
6413;BME280;3239;48.714;9.472;2023-03-31T08:07:14;97324.16;;;10.46;100.00
6413;BME280;3239;48.714;9.472;2023-03-31T08:09:43;97298.94;;;10.55;100.00
6413;BME280;3239;48.714;9.472;2023-03-31T08:12:10;97290.97;;;10.64;100.00
6413;BME280;3239;48.714;9.472;2023-03-31T08:14:36;97282.38;;;11.58;100.00
6413;BME280;3239;48.714;9.472;2023-03-31T08:17:02;97252.28;;;11.90;100.00
6413;BME280;3239;48.714;9.472;2023-03-31T08:19:28;97221.28;;;12.68;100.00
6413;BME280;3239;48.714;9.472;2023-03-31T08:21:54;97181.88;;;12.17;100.00
6413;BME280;3239;48.714;9.472;2023-03-31T08:24:20;97174.09;;;12.79;100.00
6413;BME280;3239;48.714;9.472;2023-03-31T08:26:46;97168.56;;;13.45;100.00
6413;BME280;3239;48.714;9.472;2023-03-31T08:29:12;97156.34;;;14.62;100.00
6413;BME280;3239;48.714;9.472;2023-03-31T08:31:37;97119.03;;;14.51;100.00
6413;BME280;3239;48.714;9.472;2023-03-31T08:34:04;97080.03;;;14.55;100.00
6413;BME280;3239;48.714;9.472;2023-03-31T08:36:30;97077.78;;;15.46;100.00
6413;BME280;3239;48.714;9.472;2023-03-31T08:38:55;97040.75;;;15.02;100.00
6413;BME280;3239;48.714;9.472;2023-03-31T08:41:53;97026.94;;;15.30;100.00
6413;BME280;3239;48.714;9.472;2023-03-31T08:44:45;97019.03;;;15.74;100.00
6413;BME280;3239;48.714;9.472;2023-03-31T08:47:17;97019.88;;;16.17;100.00
6413;BME280;3239;48.714;9.472;2023-03-31T08:50:04;96997.75;;;15.46;100.00
6413;BME280;3239;48.714;9.472;2023-03-31T08:52:58;96998.38;;;15.07;100.00
6413;BME280;3239;48.714;9.472;2023-03-31T08:55:45;97003.00;;;14.02;100.00
6413;BME280;3239;48.714;9.472;2023-03-31T09:04:29;97005.31;;;14.05;100.00
6413;BME280;3239;48.714;9.472;2023-03-31T09:15:34;96984.44;;;14.48;100.00
6413;BME280;3239;48.714;9.472;2023-03-31T09:18:34;96951.00;;;15.29;100.00
6413;BME280;3239;48.714;9.472;2023-03-31T09:23:37;96929.22;;;15.24;100.00
6413;BME280;3239;48.714;9.472;2023-03-31T09:29:00;96921.56;;;15.62;100.00
6413;BME280;3239;48.714;9.472;2023-03-31T09:31:28;96915.44;;;15.94;100.00
6413;BME280;3239;48.714;9.472;2023-03-31T09:34:00;96895.38;;;15.33;100.00
6413;BME280;3239;48.714;9.472;2023-03-31T09:36:26;96884.13;;;15.50;100.00
6413;BME280;3239;48.714;9.472;2023-03-31T09:38:53;96890.22;;;15.08;100.00
6413;BME280;3239;48.714;9.472;2023-03-31T09:41:19;96898.97;;;14.86;100.00
6413;BME280;3239;48.714;9.472;2023-03-31T09:43:46;96892.59;;;14.74;100.00
6413;BME280;3239;48.714;9.472;2023-03-31T09:46:32;96893.72;;;14.99;100.00
6413;BME280;3239;48.714;9.472;2023-03-31T09:49:11;96887.97;;;14.76;100.00
6413;BME280;3239;48.714;9.472;2023-03-31T09:51:43;96889.44;;;14.39;100.00
6413;BME280;3239;48.714;9.472;2023-03-31T09:54:24;96905.09;;;14.37;100.00
6413;BME280;3239;48.714;9.472;2023-03-31T09:56:54;96877.94;;;14.71;100.00
6413;BME280;3239;48.714;9.472;2023-03-31T09:59:23;96877.34;;;14.82;100.00
6413;BME280;3239;48.714;9.472;2023-03-31T10:02:02;96854.97;;;14.97;100.00
6413;BME280;3239;48.714;9.472;2023-03-31T10:04:33;96853.81;;;15.40;100.00
6413;BME280;3239;48.714;9.472;2023-03-31T10:07:02;96864.13;;;15.40;100.00
6413;BME280;3239;48.714;9.472;2023-03-31T10:09:33;96862.84;;;15.62;100.00
6413;BME280;3239;48.714;9.472;2023-03-31T10:12:06;96855.53;;;16.18;100.00
6413;BME280;3239;48.714;9.472;2023-03-31T10:14:44;96850.91;;;16.32;100.00
6413;BME280;3239;48.714;9.472;2023-03-31T10:17:21;96821.47;;;17.24;100.00
6413;BME280;3239;48.714;9.472;2023-03-31T10:20:03;96820.25;;;17.73;100.00
6413;BME280;3239;48.714;9.472;2023-03-31T10:22:32;96826.72;;;17.89;100.00
6413;BME280;3239;48.714;9.472;2023-03-31T10:25:22;96826.28;;;17.47;100.00
6413;BME280;3239;48.714;9.472;2023-03-31T10:27:52;96823.13;;;16.95;100.00
6413;BME280;3239;48.714;9.472;2023-03-31T10:30:33;96823.66;;;17.60;100.00
6413;BME280;3239;48.714;9.472;2023-03-31T10:33:04;96822.00;;;16.77;100.00
6413;BME280;3239;48.714;9.472;2023-03-31T10:35:35;96819.59;;;16.83;100.00
6413;BME280;3239;48.714;9.472;2023-03-31T10:38:10;96803.78;;;17.41;100.00
6413;BME280;3239;48.714;9.472;2023-03-31T10:40:42;96826.00;;;17.20;100.00
6413;BME280;3239;48.714;9.472;2023-03-31T10:43:20;96805.78;;;16.94;98.59
6413;BME280;3239;48.714;9.472;2023-03-31T10:45:53;96823.56;;;16.80;94.18
6413;BME280;3239;48.714;9.472;2023-03-31T10:48:34;96807.81;;;17.86;97.92
6413;BME280;3239;48.714;9.472;2023-03-31T10:51:26;96780.94;;;18.25;82.16
6413;BME280;3239;48.714;9.472;2023-03-31T10:53:54;96786.66;;;17.21;86.87
6413;BME280;3239;48.714;9.472;2023-03-31T10:56:57;96817.69;;;16.97;86.96
6413;BME280;3239;48.714;9.472;2023-03-31T11:05:45;96763.53;;;15.94;97.38
6413;BME280;3239;48.714;9.472;2023-03-31T11:20:14;96764.66;;;15.59;100.00
6413;BME280;3239;48.714;9.472;2023-03-31T11:25:42;96720.84;;;15.23;100.00
6413;BME280;3239;48.714;9.472;2023-03-31T11:28:22;96732.03;;;14.94;100.00
6413;BME280;3239;48.714;9.472;2023-03-31T11:31:23;96755.03;;;14.78;100.00
6413;BME280;3239;48.714;9.472;2023-03-31T11:39:20;97014.09;;;10.77;100.00
6413;BME280;3239;48.714;9.472;2023-03-31T11:41:56;97056.19;;;10.20;100.00
6413;BME280;3239;48.714;9.472;2023-03-31T11:44:24;97092.34;;;9.53;100.00
6413;BME280;3239;48.714;9.472;2023-03-31T11:47:06;97139.53;;;9.46;100.00
6413;BME280;3239;48.714;9.472;2023-03-31T11:49:40;97157.41;;;9.11;100.00
6413;BME280;3239;48.714;9.472;2023-03-31T11:52:34;97175.03;;;9.10;100.00
6413;BME280;3239;48.714;9.472;2023-03-31T11:55:16;97190.44;;;8.93;100.00
6413;BME280;3239;48.714;9.472;2023-03-31T11:58:08;97208.28;;;8.94;100.00
6413;BME280;3239;48.714;9.472;2023-03-31T12:00:50;97199.72;;;8.97;100.00
6413;BME280;3239;48.714;9.472;2023-03-31T12:06:19;97167.50;;;9.31;100.00
6413;BME280;3239;48.714;9.472;2023-03-31T12:09:14;97177.41;;;9.85;100.00
6413;BME280;3239;48.714;9.472;2023-03-31T12:12:09;97180.28;;;10.37;100.00
6413;BME280;3239;48.714;9.472;2023-03-31T12:14:47;97159.28;;;10.77;100.00
6413;BME280;3239;48.714;9.472;2023-03-31T12:17:19;97136.66;;;11.39;100.00
6413;BME280;3239;48.714;9.472;2023-03-31T12:19:59;97099.94;;;11.42;100.00
6413;BME280;3239;48.714;9.472;2023-03-31T12:22:42;97059.47;;;12.55;100.00
6413;BME280;3239;48.714;9.472;2023-03-31T12:25:18;97038.78;;;13.66;100.00
6413;BME280;3239;48.714;9.472;2023-03-31T12:27:47;96997.16;;;12.41;100.00
6413;BME280;3239;48.714;9.472;2023-03-31T12:30:35;96995.22;;;13.02;100.00
6413;BME280;3239;48.714;9.472;2023-03-31T12:33:11;96987.75;;;13.55;100.00
6413;BME280;3239;48.714;9.472;2023-03-31T12:41:54;96906.59;;;13.11;100.00
6413;BME280;3239;48.714;9.472;2023-03-31T12:47:39;96855.44;;;14.75;100.00
6413;BME280;3239;48.714;9.472;2023-03-31T12:56:19;96826.56;;;14.76;100.00
6413;BME280;3239;48.714;9.472;2023-03-31T12:58:46;96808.00;;;15.77;100.00
6413;BME280;3239;48.714;9.472;2023-03-31T13:01:22;96810.03;;;14.76;100.00
6413;BME280;3239;48.714;9.472;2023-03-31T13:11:40;96786.88;;;15.61;100.00
6413;BME280;3239;48.714;9.472;2023-03-31T13:14:13;96786.63;;;16.31;100.00
6413;BME280;3239;48.714;9.472;2023-03-31T13:16:41;96780.03;;;15.83;100.00
6413;BME280;3239;48.714;9.472;2023-03-31T13:19:32;96789.31;;;15.45;100.00
6413;BME280;3239;48.714;9.472;2023-03-31T13:22:02;96778.78;;;15.53;100.00
6413;BME280;3239;48.714;9.472;2023-03-31T13:24:29;96780.06;;;15.01;100.00
6413;BME280;3239;48.714;9.472;2023-03-31T13:26:58;96781.84;;;14.28;100.00
6413;BME280;3239;48.714;9.472;2023-03-31T13:29:42;96777.75;;;13.72;100.00
6413;BME280;3239;48.714;9.472;2023-03-31T13:32:29;96779.66;;;13.98;100.00
6413;BME280;3239;48.714;9.472;2023-03-31T13:35:05;96773.84;;;13.84;100.00
6413;BME280;3239;48.714;9.472;2023-03-31T13:38:07;96769.66;;;13.74;100.00
6413;BME280;3239;48.714;9.472;2023-03-31T13:52:55;96835.47;;;12.98;100.00
6413;BME280;3239;48.714;9.472;2023-03-31T13:59:01;96942.44;;;11.52;100.00
6413;BME280;3239;48.714;9.472;2023-03-31T14:02:16;96989.09;;;11.13;100.00
6413;BME280;3239;48.714;9.472;2023-03-31T14:05:11;97015.91;;;10.82;100.00
6413;BME280;3239;48.714;9.472;2023-03-31T14:07:59;97018.38;;;10.48;100.00
6413;BME280;3239;48.714;9.472;2023-03-31T14:10:34;97009.97;;;10.39;100.00
6413;BME280;3239;48.714;9.472;2023-03-31T14:13:08;96997.56;;;10.45;100.00
6413;BME280;3239;48.714;9.472;2023-03-31T14:15:57;96974.59;;;10.33;100.00
6413;BME280;3239;48.714;9.472;2023-03-31T14:18:30;96953.59;;;10.36;100.00
6413;BME280;3239;48.714;9.472;2023-03-31T14:21:25;96960.34;;;10.42;100.00
6413;BME280;3239;48.714;9.472;2023-03-31T14:24:13;96940.13;;;10.23;100.00
6413;BME280;3239;48.714;9.472;2023-03-31T14:27:12;96936.22;;;10.56;100.00
6413;BME280;3239;48.714;9.472;2023-03-31T14:30:46;96926.94;;;11.96;100.00
6413;BME280;3239;48.714;9.472;2023-03-31T14:33:24;96881.63;;;13.62;100.00
6413;BME280;3239;48.714;9.472;2023-03-31T14:36:34;96851.69;;;14.04;100.00
6413;BME280;3239;48.714;9.472;2023-03-31T14:39:08;96836.03;;;12.09;100.00
6413;BME280;3239;48.714;9.472;2023-03-31T14:41:35;96844.25;;;11.75;100.00
6413;BME280;3239;48.714;9.472;2023-03-31T14:44:05;96851.41;;;11.71;100.00
6413;BME280;3239;48.714;9.472;2023-03-31T14:46:36;96841.94;;;11.23;100.00
6413;BME280;3239;48.714;9.472;2023-03-31T14:49:26;96854.84;;;11.54;100.00
6413;BME280;3239;48.714;9.472;2023-03-31T14:51:57;96855.81;;;11.91;100.00
6413;BME280;3239;48.714;9.472;2023-03-31T14:54:23;96831.84;;;14.15;100.00
6413;BME280;3239;48.714;9.472;2023-03-31T14:56:54;96800.50;;;17.10;100.00
6413;BME280;3239;48.714;9.472;2023-03-31T14:59:30;96784.16;;;17.60;100.00
6413;BME280;3239;48.714;9.472;2023-03-31T15:01:58;96788.16;;;18.30;100.00
6413;BME280;3239;48.714;9.472;2023-03-31T15:04:29;96778.28;;;19.56;100.00
6413;BME280;3239;48.714;9.472;2023-03-31T15:06:55;96772.34;;;17.25;100.00
6413;BME280;3239;48.714;9.472;2023-03-31T15:09:29;96759.94;;;18.58;100.00
6413;BME280;3239;48.714;9.472;2023-03-31T15:12:06;96752.31;;;20.94;100.00
6413;BME280;3239;48.714;9.472;2023-03-31T15:14:44;96733.59;;;20.66;83.34
6413;BME280;3239;48.714;9.472;2023-03-31T15:17:30;96737.78;;;21.93;72.80
6413;BME280;3239;48.714;9.472;2023-03-31T15:19:59;96722.44;;;16.65;100.00
6413;BME280;3239;48.714;9.472;2023-03-31T15:22:28;96731.22;;;17.08;100.00
6413;BME280;3239;48.714;9.472;2023-03-31T15:24:55;96719.91;;;18.61;100.00
6413;BME280;3239;48.714;9.472;2023-03-31T15:27:45;96729.97;;;18.68;100.00
6413;BME280;3239;48.714;9.472;2023-03-31T15:30:23;96751.13;;;15.32;100.00
6413;BME280;3239;48.714;9.472;2023-03-31T15:32:50;96727.22;;;13.67;100.00
6413;BME280;3239;48.714;9.472;2023-03-31T15:35:31;96741.16;;;13.05;100.00
6413;BME280;3239;48.714;9.472;2023-03-31T15:37:59;96753.06;;;12.81;100.00
6413;BME280;3239;48.714;9.472;2023-03-31T15:40:37;96755.41;;;12.31;100.00
6413;BME280;3239;48.714;9.472;2023-03-31T15:43:17;96761.22;;;12.35;100.00
6413;BME280;3239;48.714;9.472;2023-03-31T15:46:00;96759.53;;;11.96;100.00
6413;BME280;3239;48.714;9.472;2023-03-31T15:48:33;96775.25;;;11.79;100.00
6413;BME280;3239;48.714;9.472;2023-03-31T15:53:47;96793.22;;;11.55;100.00
6413;BME280;3239;48.714;9.472;2023-03-31T15:56:41;96781.91;;;11.51;100.00
6413;BME280;3239;48.714;9.472;2023-03-31T15:59:25;96776.69;;;11.46;100.00